createdAt,value
2018-04-11T00:01:17.164Z,23.77
2018-04-11T00:03:45.408Z,23.90
2018-04-11T00:06:13.658Z,31.93
2018-04-11T00:08:42.000Z,27.97
2018-04-11T00:11:10.289Z,25.57
2018-04-11T00:13:38.915Z,25.03
2018-04-11T00:16:07.165Z,17.43
2018-04-11T00:18:35.478Z,21.10
2018-04-11T00:21:03.799Z,18.70
2018-04-11T00:23:32.070Z,22.87
2018-04-11T00:26:00.362Z,24.23
2018-04-11T00:28:28.604Z,24.73
2018-04-11T00:30:56.920Z,30.50
2018-04-11T00:33:25.179Z,22.53
2018-04-11T00:35:53.435Z,28.13
2018-04-11T00:38:21.721Z,27.83
2018-04-11T00:40:50.872Z,38.20
2018-04-11T00:43:19.156Z,27.70
2018-04-11T00:45:47.428Z,26.17
2018-04-11T00:48:15.674Z,30.83
2018-04-11T00:50:44.706Z,29.53
2018-04-11T00:53:24.689Z,25.70
2018-04-11T00:55:52.961Z,27.90
2018-04-11T00:58:21.249Z,29.97
2018-04-11T01:00:49.497Z,37.07
2018-04-11T01:03:17.752Z,29.93
2018-04-11T01:05:46.025Z,35.70
2018-04-11T01:08:15.167Z,32.73
2018-04-11T01:10:43.564Z,45.40
2018-04-11T01:13:11.846Z,37.43
2018-04-11T01:15:40.148Z,43.77
2018-04-11T01:18:09.203Z,37.03
2018-04-11T01:20:37.479Z,41.90
2018-04-11T01:23:05.733Z,35.30
2018-04-11T01:25:34.061Z,31.23
2018-04-11T01:28:02.337Z,33.43
2018-04-11T01:30:30.613Z,30.00
2018-04-11T01:32:58.862Z,30.50
2018-04-11T01:35:27.109Z,28.33
2018-04-11T01:37:55.386Z,33.97
2018-04-11T01:40:23.623Z,34.90
2018-04-11T01:42:51.937Z,34.30
2018-04-11T01:45:21.099Z,43.27
2018-04-11T01:47:49.364Z,45.03
2018-04-11T01:50:17.678Z,40.80
2018-04-11T01:52:46.702Z,48.83
2018-04-11T01:55:15.004Z,39.90
2018-04-11T01:57:43.276Z,42.57
2018-04-11T02:00:11.572Z,38.03
2018-04-11T02:02:39.851Z,39.77
2018-04-11T02:05:08.922Z,38.43
2018-04-11T02:07:37.195Z,60.30
2018-04-11T02:10:05.475Z,65.67
2018-04-11T02:12:33.712Z,69.00
2018-04-11T02:15:02.768Z,68.00
2018-04-11T02:17:31.038Z,56.37
2018-04-11T02:19:59.293Z,53.20
2018-04-11T02:22:27.535Z,56.63
2018-04-11T02:24:56.592Z,57.00
2018-04-11T02:27:24.916Z,56.90
2018-04-11T02:29:53.179Z,57.37
2018-04-11T02:32:22.206Z,53.70
2018-04-11T02:34:50.476Z,60.63
2018-04-11T02:37:18.744Z,51.30
2018-04-11T02:39:47.765Z,50.20
2018-04-11T02:42:16.009Z,41.07
2018-04-11T02:44:45.083Z,41.70
2018-04-11T02:47:13.366Z,42.90
2018-04-11T02:49:41.613Z,40.97
2018-04-11T02:52:09.907Z,44.77
2018-04-11T02:54:38.161Z,38.07
2018-04-11T02:57:06.421Z,41.27
2018-04-11T02:59:34.681Z,38.80
2018-04-11T03:02:02.965Z,60.03
2018-04-11T03:04:31.256Z,54.37
2018-04-11T03:06:59.532Z,41.50
2018-04-11T03:09:27.839Z,47.87
2018-04-11T03:11:56.120Z,49.67
2018-04-11T03:14:24.380Z,54.30
2018-04-11T03:16:52.940Z,45.20
2018-04-11T03:19:21.937Z,45.77
2018-04-11T03:21:50.252Z,172.73
2018-04-11T03:24:18.566Z,97.03
2018-04-11T03:26:47.409Z,71.43
2018-04-11T03:29:15.692Z,54.60
2018-04-11T03:31:43.948Z,52.07
2018-04-11T03:34:12.225Z,50.07
2018-04-11T03:36:40.455Z,58.47
2018-04-11T03:39:08.729Z,55.97
2018-04-11T03:41:37.774Z,55.40
2018-04-11T03:44:06.040Z,70.20
2018-04-11T03:46:35.069Z,60.90
2018-04-11T03:49:03.816Z,54.10
2018-04-11T03:51:32.171Z,95.23
2018-04-11T03:54:00.617Z,45.93
2018-04-11T03:56:28.864Z,48.40
2018-04-11T03:58:57.112Z,50.77
2018-04-11T04:01:26.155Z,55.03
2018-04-11T04:03:54.412Z,57.20
2018-04-11T04:06:22.731Z,51.47
2018-04-11T04:08:51.009Z,63.03
2018-04-11T04:11:19.290Z,45.97
2018-04-11T04:13:59.468Z,59.30
2018-04-11T04:16:39.982Z,51.87
2018-04-11T04:19:20.044Z,61.03
2018-04-11T04:21:48.338Z,47.37
2018-04-11T04:24:16.747Z,49.87
2018-04-11T04:26:45.007Z,61.33
2018-04-11T04:29:14.269Z,48.93
2018-04-11T04:31:43.060Z,61.07
2018-04-11T04:34:11.332Z,63.10
2018-04-11T04:36:39.595Z,56.50
2018-04-11T04:39:07.884Z,50.70
2018-04-11T04:41:36.176Z,56.87
2018-04-11T04:44:04.421Z,50.90
2018-04-11T04:46:33.490Z,55.00
2018-04-11T04:49:01.879Z,83.60
2018-04-11T04:51:30.119Z,62.80
2018-04-11T04:53:58.369Z,65.10
2018-04-11T04:56:26.668Z,62.20
2018-04-11T04:58:54.919Z,67.77
2018-04-11T05:01:23.214Z,55.37
2018-04-11T05:03:51.498Z,57.03
2018-04-11T05:06:20.525Z,54.27
2018-04-11T05:08:48.824Z,55.43
2018-04-11T05:11:17.834Z,54.27
2018-04-11T05:13:46.118Z,60.63
2018-04-11T05:16:15.286Z,61.60
2018-04-11T05:18:43.505Z,50.40
2018-04-11T05:21:11.769Z,55.10
2018-04-11T05:23:40.081Z,56.83
2018-04-11T05:26:08.490Z,62.43
2018-04-11T05:28:36.767Z,71.00
2018-04-11T05:31:05.035Z,64.60
2018-04-11T05:33:33.311Z,56.43
2018-04-11T05:36:01.591Z,75.50
2018-04-11T05:38:29.832Z,65.37
2018-04-11T05:40:58.181Z,64.40
2018-04-11T05:43:27.273Z,51.60
2018-04-11T05:45:55.680Z,66.07
2018-04-11T05:48:23.970Z,58.67
2018-04-11T05:50:52.247Z,63.10
2018-04-11T05:53:20.588Z,55.03
2018-04-11T05:55:48.805Z,63.93
2018-04-11T05:58:17.093Z,59.37
2018-04-11T06:00:45.329Z,54.53
2018-04-11T06:03:13.604Z,75.03
2018-04-11T06:05:41.891Z,69.37
2018-04-11T06:08:10.152Z,63.53
2018-04-11T06:10:39.208Z,67.63
2018-04-11T06:13:07.484Z,56.27
2018-04-11T06:15:35.844Z,67.47
2018-04-11T06:18:04.110Z,66.20
2018-04-11T06:20:32.360Z,70.30
2018-04-11T06:23:01.444Z,76.03
2018-04-11T06:25:29.688Z,83.00
2018-04-11T06:27:58.764Z,77.73
2018-04-11T06:30:27.029Z,85.33
2018-04-11T06:32:55.290Z,81.10
2018-04-11T06:35:24.317Z,99.63
2018-04-11T06:37:52.609Z,83.63
2018-04-11T06:40:21.002Z,96.50
2018-04-11T06:42:49.249Z,97.73
2018-04-11T06:45:17.543Z,96.93
2018-04-11T06:47:47.466Z,91.53
2018-04-11T06:50:15.748Z,111.67
2018-04-11T06:52:44.017Z,90.40
2018-04-11T06:55:12.269Z,91.77
2018-04-11T06:57:40.557Z,100.50
2018-04-11T07:00:09.931Z,99.50
2018-04-11T07:02:38.228Z,111.07
2018-04-11T07:05:06.537Z,93.60
2018-04-11T07:07:34.872Z,96.30
2018-04-11T07:10:03.892Z,94.30
2018-04-11T07:12:32.191Z,97.03
2018-04-11T07:15:00.516Z,92.63
2018-04-11T07:17:29.537Z,94.17
2018-04-11T07:19:57.890Z,93.13
2018-04-11T07:22:26.092Z,93.87
2018-04-11T07:24:55.253Z,92.10
2018-04-11T07:27:24.261Z,84.73
2018-04-11T07:29:52.533Z,93.03
2018-04-11T07:32:21.780Z,81.27
2018-04-11T07:34:50.078Z,85.93
2018-04-11T07:37:18.385Z,94.73
2018-04-11T07:39:47.419Z,91.53
2018-04-11T07:42:15.684Z,80.77
2018-04-11T07:44:43.934Z,74.33
2018-04-11T07:47:13.026Z,74.13
2018-04-11T07:49:42.549Z,85.40
2018-04-11T07:52:10.950Z,71.87
2018-04-11T07:54:39.186Z,85.60
2018-04-11T07:57:08.249Z,82.50
2018-04-11T07:59:36.714Z,74.90
2018-04-11T08:02:04.998Z,65.63
2018-04-11T08:04:33.277Z,73.10
2018-04-11T08:07:01.573Z,80.17
2018-04-11T08:09:29.822Z,58.33
2018-04-11T08:11:58.401Z,70.77
2018-04-11T08:14:26.714Z,51.00
2018-04-11T08:16:54.986Z,57.93
2018-04-11T08:19:23.249Z,47.77
2018-04-11T08:21:51.574Z,44.20
2018-04-11T08:24:19.831Z,46.60
2018-04-11T08:26:48.158Z,47.57
2018-04-11T08:29:16.431Z,48.30
2018-04-11T08:31:44.708Z,38.77
2018-04-11T08:34:13.055Z,46.10
2018-04-11T08:36:41.333Z,38.17
2018-04-11T08:39:11.072Z,49.50
2018-04-11T08:41:39.320Z,33.37
2018-04-11T08:44:08.370Z,46.03
2018-04-11T08:46:36.637Z,40.53
2018-04-11T08:49:04.894Z,44.67
2018-04-11T08:51:33.150Z,33.87
2018-04-11T08:54:01.461Z,41.90
2018-04-11T08:56:29.726Z,35.67
2018-04-11T08:58:58.785Z,49.73
2018-04-11T09:01:27.025Z,33.27
2018-04-11T09:03:55.295Z,33.53
2018-04-11T09:06:23.567Z,28.10
2018-04-11T09:08:51.857Z,26.90
2018-04-11T09:11:20.095Z,26.30
2018-04-11T09:13:49.187Z,21.17
2018-04-11T09:16:18.259Z,24.23
2018-04-11T09:18:46.530Z,22.43
2018-04-11T09:21:14.788Z,24.70
2018-04-11T09:23:43.079Z,24.90
2018-04-11T09:26:11.402Z,18.77
2018-04-11T09:28:39.632Z,29.30
2018-04-11T09:31:08.450Z,24.53
2018-04-11T09:33:36.875Z,21.63
2018-04-11T09:36:05.157Z,17.60
2018-04-11T09:38:33.523Z,19.10
2018-04-11T09:41:01.888Z,29.80
2018-04-11T09:43:30.894Z,34.73
2018-04-11T09:45:59.180Z,28.20
2018-04-11T09:48:27.427Z,28.30
2018-04-11T09:50:55.682Z,19.00
2018-04-11T09:53:24.382Z,29.20
2018-04-11T09:55:52.680Z,21.30
2018-04-11T09:58:21.771Z,22.20
2018-04-11T10:00:54.012Z,24.57
2018-04-11T10:03:23.211Z,19.43
2018-04-11T10:05:52.298Z,27.60
2018-04-11T10:08:22.248Z,24.13
2018-04-11T10:10:51.298Z,27.40
2018-04-11T10:13:19.528Z,28.30
2018-04-11T10:15:48.576Z,27.00
2018-04-11T10:18:17.026Z,24.80
2018-04-11T10:20:46.076Z,32.13
2018-04-11T10:23:14.346Z,27.90
2018-04-11T10:25:42.624Z,29.00
2018-04-11T10:28:10.877Z,34.93
2018-04-11T10:30:39.161Z,28.23
2018-04-11T10:33:07.441Z,27.60
2018-04-11T10:35:35.734Z,33.70
2018-04-11T10:38:04.018Z,23.57
2018-04-11T10:40:32.293Z,26.20
2018-04-11T10:43:02.101Z,30.93
2018-04-11T10:45:32.756Z,26.80
2018-04-11T10:48:01.186Z,27.33
2018-04-11T10:50:29.532Z,28.40
2018-04-11T10:52:57.937Z,31.93
2018-04-11T10:55:26.836Z,31.40
2018-04-11T10:57:56.206Z,35.77
2018-04-11T11:00:25.309Z,28.67
2018-04-11T11:02:56.226Z,25.63
2018-04-11T11:05:25.757Z,28.77
2018-04-11T11:07:55.195Z,20.43
2018-04-11T11:10:24.472Z,30.43
2018-04-11T11:12:54.474Z,31.97
2018-04-11T11:15:23.673Z,28.47
2018-04-11T11:17:52.024Z,27.90
2018-04-11T11:20:20.294Z,29.50
2018-04-11T11:22:48.726Z,26.83
2018-04-11T11:25:18.414Z,26.03
2018-04-11T11:27:46.791Z,35.03
2018-04-11T11:30:15.960Z,27.17
2018-04-11T11:32:44.562Z,21.17
2018-04-11T11:35:12.807Z,23.87
2018-04-11T11:37:41.260Z,23.53
2018-04-11T11:40:10.346Z,25.67
2018-04-11T11:42:38.737Z,26.23
2018-04-11T11:45:07.014Z,31.93
2018-04-11T11:47:35.311Z,21.70
2018-04-11T11:50:05.001Z,26.50
2018-04-11T11:52:33.667Z,20.57
2018-04-11T11:55:02.492Z,23.00
2018-04-11T11:57:30.932Z,20.80
2018-04-11T11:59:59.920Z,22.23
2018-04-11T12:02:28.948Z,23.63
2018-04-11T12:04:57.373Z,23.27
2018-04-11T12:07:25.694Z,28.00
2018-04-11T12:09:54.744Z,21.50
2018-04-11T12:12:23.090Z,22.37
2018-04-11T12:14:51.384Z,37.03
2018-04-11T12:17:21.513Z,18.37
2018-04-11T12:19:49.765Z,16.70
2018-04-11T12:22:18.045Z,16.00
2018-04-11T12:24:47.831Z,15.40
2018-04-11T12:27:16.885Z,16.30
2018-04-11T12:29:45.255Z,10.17
2018-04-11T12:32:13.558Z,14.80
2018-04-11T12:34:43.087Z,13.77
2018-04-11T12:37:14.028Z,9.73
2018-04-11T12:39:42.315Z,21.33
2018-04-11T12:42:10.605Z,10.90
2018-04-11T12:44:38.925Z,12.90
2018-04-11T12:47:07.993Z,15.10
2018-04-11T12:49:36.237Z,14.53
2018-04-11T12:52:05.303Z,13.03
2018-04-11T12:54:33.631Z,9.70
2018-04-11T12:57:02.669Z,12.97
2018-04-11T12:59:30.904Z,14.60
2018-04-11T13:01:59.992Z,18.77
2018-04-11T13:04:28.324Z,15.37
2018-04-11T13:06:57.170Z,13.87
2018-04-11T13:09:26.638Z,12.90
2018-04-11T13:11:54.949Z,12.70
2018-04-11T13:14:23.315Z,13.37
2018-04-11T13:16:52.361Z,8.60
2018-04-11T13:19:20.620Z,10.53
2018-04-11T13:21:48.907Z,6.97
2018-04-11T13:24:17.285Z,11.70
2018-04-11T13:26:46.881Z,16.70
2018-04-11T13:29:15.195Z,9.87
2018-04-11T13:31:44.730Z,7.80
2018-04-11T13:34:24.997Z,7.70
2018-04-11T13:36:53.300Z,9.60
2018-04-11T13:39:21.647Z,9.33
2018-04-11T13:41:50.995Z,11.53
2018-04-11T13:44:19.490Z,10.87
2018-04-11T13:46:47.894Z,11.43
2018-04-11T13:49:16.154Z,13.87
2018-04-11T13:51:44.606Z,10.93
2018-04-11T13:54:12.918Z,14.93
2018-04-11T13:56:41.230Z,9.80
2018-04-11T13:59:09.444Z,11.00
2018-04-11T14:01:37.797Z,9.37
2018-04-11T14:04:06.138Z,9.50
2018-04-11T14:06:36.607Z,9.00
2018-04-11T14:09:05.620Z,10.80
2018-04-11T14:11:33.915Z,10.10
2018-04-11T14:14:02.201Z,8.60
2018-04-11T14:16:30.626Z,12.63
2018-04-11T14:18:58.914Z,9.70
2018-04-11T14:21:27.197Z,8.87
2018-04-11T14:23:55.767Z,8.77
2018-04-11T14:26:24.822Z,8.13
2018-04-11T14:28:53.098Z,6.80
2018-04-11T14:31:21.381Z,6.73
2018-04-11T14:33:49.653Z,11.53
2018-04-11T14:36:17.933Z,7.47
2018-04-11T14:38:46.563Z,10.53
2018-04-11T14:41:15.762Z,8.17
2018-04-11T14:43:44.788Z,10.27
2018-04-11T14:46:13.086Z,9.27
2018-04-11T14:48:41.642Z,12.33
2018-04-11T14:51:11.478Z,5.50
2018-04-11T14:53:39.795Z,10.80
2018-04-11T14:56:08.988Z,7.83
2018-04-11T14:58:37.508Z,5.07
2018-04-11T15:01:06.585Z,6.07
2018-04-11T15:03:35.867Z,11.70
2018-04-11T15:06:05.279Z,10.10
2018-04-11T15:08:35.449Z,17.87
2018-04-11T15:11:03.708Z,6.20
2018-04-11T15:13:32.852Z,6.23
2018-04-11T15:16:01.136Z,7.23
2018-04-11T15:18:29.413Z,8.40
2018-04-11T15:20:58.659Z,6.80
2018-04-11T15:23:27.187Z,7.33
2018-04-11T15:25:56.330Z,6.20
2018-04-11T15:28:24.609Z,7.30
2018-04-11T15:30:53.658Z,7.10
2018-04-11T15:33:21.939Z,6.93
2018-04-11T15:35:50.776Z,10.87
2018-04-11T15:38:19.904Z,7.37
2018-04-11T15:40:49.854Z,6.50
2018-04-11T15:43:18.126Z,4.30
2018-04-11T15:45:47.053Z,5.03
2018-04-11T15:48:17.055Z,13.80
2018-04-11T15:50:45.449Z,6.67
2018-04-11T15:53:13.738Z,2.77
2018-04-11T15:55:44.094Z,3.50
2018-04-11T15:58:13.131Z,3.03
2018-04-11T16:00:41.477Z,3.27
2018-04-11T16:03:10.118Z,5.70
2018-04-11T16:05:46.077Z,3.50
2018-04-11T16:08:15.313Z,3.60
2018-04-11T16:10:44.252Z,2.93
2018-04-11T16:13:13.273Z,11.40
2018-04-11T16:15:42.125Z,4.40
2018-04-11T16:18:11.146Z,5.80
2018-04-11T16:20:40.355Z,2.83
2018-04-11T16:23:09.422Z,3.07
2018-04-11T16:25:37.821Z,6.00
2018-04-11T16:28:06.052Z,2.63
2018-04-11T16:30:34.919Z,3.63
2018-04-11T16:33:03.971Z,8.23
2018-04-11T16:35:34.098Z,2.33
2018-04-11T16:38:03.216Z,5.83
2018-04-11T16:40:31.530Z,5.50
2018-04-11T16:43:00.548Z,8.47
2018-04-11T16:45:28.882Z,6.20
2018-04-11T16:47:57.974Z,8.97
2018-04-11T16:50:27.020Z,4.70
2018-04-11T16:52:55.292Z,5.50
2018-04-11T16:55:23.670Z,4.40
2018-04-11T16:57:51.956Z,2.53
2018-04-11T17:00:21.111Z,9.03
2018-04-11T17:02:49.570Z,6.73
2018-04-11T17:05:17.831Z,7.33
2018-04-11T17:07:46.090Z,4.57
2018-04-11T17:10:14.351Z,3.00
2018-04-11T17:12:42.591Z,5.37
2018-04-11T17:15:11.649Z,4.70
2018-04-11T17:17:40.350Z,13.30
2018-04-11T17:20:08.596Z,6.00
2018-04-11T17:22:48.991Z,3.80
2018-04-11T17:25:29.045Z,3.73
2018-04-11T17:28:09.229Z,4.63
2018-04-11T17:30:50.606Z,8.47
2018-04-11T17:33:19.667Z,3.03
2018-04-11T17:35:47.960Z,3.53
2018-04-11T17:38:16.248Z,2.40
2018-04-11T17:40:44.548Z,2.47
2018-04-11T17:43:12.993Z,7.10
2018-04-11T17:45:41.568Z,8.80
2018-04-11T17:48:09.852Z,3.77
2018-04-11T17:50:38.163Z,5.70
2018-04-11T17:53:06.502Z,3.10
2018-04-11T17:55:34.958Z,1.97
2018-04-11T17:58:04.992Z,4.60
2018-04-11T18:00:34.181Z,2.33
2018-04-11T18:03:02.497Z,4.70
2018-04-11T18:05:32.655Z,5.70
2018-04-11T18:08:01.295Z,4.60
2018-04-11T18:10:29.587Z,3.40
2018-04-11T18:12:58.100Z,3.83
2018-04-11T18:15:27.323Z,6.17
2018-04-11T18:17:55.642Z,4.03
2018-04-11T18:20:25.038Z,2.63
2018-04-11T18:22:54.138Z,3.20
2018-04-11T18:25:22.429Z,1.80
2018-04-11T18:27:50.707Z,4.33
2018-04-11T18:30:19.010Z,16.07
2018-04-11T18:32:47.498Z,5.90
2018-04-11T18:35:15.783Z,6.07
2018-04-11T18:37:45.037Z,5.37
2018-04-11T18:40:15.071Z,2.87
2018-04-11T18:42:43.367Z,5.20
2018-04-11T18:45:11.693Z,7.57
2018-04-11T18:47:41.560Z,7.30
2018-04-11T18:50:10.582Z,9.67
2018-04-11T18:52:38.905Z,7.57
2018-04-11T18:55:08.806Z,7.10
2018-04-11T18:57:37.924Z,11.20
2018-04-11T19:00:06.969Z,6.97
2018-04-11T19:02:35.353Z,9.40
2018-04-11T19:05:03.682Z,5.93
2018-04-11T19:07:32.745Z,5.40
2018-04-11T19:10:01.014Z,5.03
2018-04-11T19:12:31.288Z,5.10
2018-04-11T19:14:59.670Z,3.87
2018-04-11T19:17:28.010Z,5.40
2018-04-11T19:19:56.270Z,15.43
2018-04-11T19:22:24.988Z,5.17
2018-04-11T19:24:53.308Z,4.03
2018-04-11T19:27:22.316Z,4.57
2018-04-11T19:29:50.650Z,13.13
2018-04-11T19:32:18.926Z,3.23
2018-04-11T19:34:48.785Z,4.53
2018-04-11T19:37:17.095Z,7.00
2018-04-11T19:39:45.393Z,3.80
2018-04-11T19:42:13.694Z,4.13
2018-04-11T19:44:42.832Z,8.20
2018-04-11T19:47:11.172Z,7.10
2018-04-11T19:49:40.220Z,10.07
2018-04-11T19:52:08.533Z,7.07
2018-04-11T19:54:36.818Z,9.73
2018-04-11T19:57:05.892Z,20.43
2018-04-11T19:59:34.534Z,7.13
2018-04-11T20:02:02.973Z,10.97
2018-04-11T20:04:31.934Z,4.70
2018-04-11T20:07:01.230Z,5.93
2018-04-11T20:09:29.470Z,6.63
2018-04-11T20:11:57.827Z,9.73
2018-04-11T20:14:26.100Z,9.93
2018-04-11T20:16:55.239Z,19.53
2018-04-11T20:19:23.747Z,8.03
2018-04-11T20:21:52.048Z,4.17
2018-04-11T20:24:21.262Z,5.23
2018-04-11T20:26:49.550Z,10.43
2018-04-11T20:29:18.043Z,6.20
2018-04-11T20:31:47.083Z,8.70
2018-04-11T20:34:15.402Z,8.23
2018-04-11T20:36:44.591Z,5.33
2018-04-11T20:39:13.332Z,20.53
2018-04-11T20:41:41.661Z,9.23
2018-04-11T20:44:10.713Z,6.80
2018-04-11T20:46:39.198Z,7.20
2018-04-11T20:49:08.650Z,4.60
2018-04-11T20:51:36.970Z,5.30
2018-04-11T20:54:05.254Z,10.63
2018-04-11T20:56:33.525Z,16.63
2018-04-11T20:59:01.855Z,6.07
2018-04-11T21:01:30.116Z,6.77
2018-04-11T21:03:58.416Z,7.43
2018-04-11T21:06:27.496Z,7.17
2018-04-11T21:08:56.680Z,8.13
2018-04-11T21:11:24.937Z,14.73
2018-04-11T21:13:53.199Z,6.97
2018-04-11T21:16:21.494Z,15.80
2018-04-11T21:18:49.802Z,6.80
2018-04-11T21:21:18.074Z,16.83
2018-04-11T21:23:47.266Z,9.87
2018-04-11T21:26:15.559Z,9.13
2018-04-11T21:28:44.253Z,7.43
2018-04-11T21:31:12.521Z,7.40
2018-04-11T21:33:40.837Z,5.60
2018-04-11T21:36:09.313Z,15.50
2018-04-11T21:38:38.352Z,9.27
2018-04-11T21:41:07.076Z,11.60
2018-04-11T21:43:35.328Z,7.23
2018-04-11T21:46:04.423Z,10.10
2018-04-11T21:48:32.699Z,6.33
2018-04-11T21:51:01.262Z,14.23
2018-04-11T21:53:29.530Z,9.00
2018-04-11T21:55:58.370Z,6.60
2018-04-11T21:58:27.469Z,7.23
2018-04-11T22:00:55.775Z,13.53
2018-04-11T22:03:24.046Z,12.93
2018-04-11T22:05:52.348Z,7.37
2018-04-11T22:08:21.190Z,11.70
2018-04-11T22:10:49.810Z,17.20
2018-04-11T22:13:18.825Z,10.97
2018-04-11T22:15:47.117Z,7.80
2018-04-11T22:18:15.422Z,10.83
2018-04-11T22:20:43.669Z,7.30
2018-04-11T22:23:12.201Z,16.83
2018-04-11T22:25:40.486Z,15.00
2018-04-11T22:28:08.758Z,9.53
2018-04-11T22:30:37.837Z,8.90
2018-04-11T22:33:06.538Z,10.37
2018-04-11T22:35:34.763Z,10.00
2018-04-11T22:38:03.063Z,13.60
2018-04-11T22:40:31.303Z,13.37
2018-04-11T22:42:59.562Z,10.93
2018-04-11T22:45:29.512Z,9.67
2018-04-11T22:47:58.523Z,14.43
2018-04-11T22:50:26.807Z,13.20
2018-04-11T22:52:55.211Z,16.50
2018-04-11T22:55:24.313Z,10.10
2018-04-11T22:57:52.548Z,12.27
2018-04-11T23:00:21.032Z,16.63
2018-04-11T23:02:50.042Z,10.77
2018-04-11T23:05:18.340Z,12.90
2018-04-11T23:07:46.616Z,12.23
2018-04-11T23:10:14.924Z,11.57
2018-04-11T23:12:43.200Z,18.23
2018-04-11T23:15:11.498Z,15.13
2018-04-11T23:17:40.313Z,11.40
2018-04-11T23:20:08.562Z,16.43
2018-04-11T23:22:36.812Z,11.53
2018-04-11T23:25:05.092Z,11.90
2018-04-11T23:27:34.150Z,11.57
2018-04-11T23:30:02.363Z,15.20
2018-04-11T23:32:31.400Z,14.73
2018-04-11T23:34:59.639Z,10.97
2018-04-11T23:37:28.676Z,14.30
2018-04-11T23:39:57.000Z,11.00
2018-04-11T23:42:26.046Z,13.67
2018-04-11T23:44:54.305Z,15.27
2018-04-11T23:47:23.302Z,11.60
2018-04-11T23:49:51.592Z,12.97
2018-04-11T23:52:19.816Z,18.50
2018-04-11T23:54:48.865Z,23.33
2018-04-11T23:57:17.125Z,20.63
2018-04-11T23:59:46.285Z,22.97
